Time;durP1;ratioP1;P1;durP2;ratioP2;P2;SDS_P1;SDS_P2;PMS_P1;PMS_P2;Temp;Humidity;BMP_temperature;BMP_pressure;BME280_temperature;BME280_humidity;BME280_pressure;Samples;Min_cycle;Max_cycle;Signal;HPM_P1;HPM_P2
2024/01/09 00:01:44;;;;;;;7.97;3.22;;;;;;;;;;5125178;27;20078;-66
2024/01/09 00:04:10;;;;;;;6.55;2.90;;;;;;;;;;5107700;27;20049;-67
2024/01/09 00:06:36;;;;;;;6.10;2.90;;;;;;;;;;5125512;27;20043;-65
2024/01/09 00:09:03;;;;;;;6.03;3.03;;;;;;;;;;5104378;27;20500;-66
2024/01/09 00:11:29;;;;;;;5.10;2.38;;;;;;;;;;5103400;27;20126;-66
2024/01/09 00:13:56;;;;;;;6.57;2.55;;;;;;;;;;5101651;27;20118;-66
2024/01/09 00:16:22;;;;;;;8.15;3.00;;;;;;;;;;5126808;27;20058;-66
2024/01/09 00:18:53;;;;;;;7.63;2.70;;;;;;;;;;5105127;27;20089;-66
2024/01/09 00:21:20;;;;;;;7.35;3.03;;;;;;;;;;5102846;27;20044;-66
2024/01/09 00:23:46;;;;;;;8.25;3.03;;;;;;;;;;5105757;27;20059;-66
2024/01/09 00:26:12;;;;;;;5.45;2.35;;;;;;;;;;5109120;27;20043;-66
2024/01/09 00:28:39;;;;;;;6.30;2.65;;;;;;;;;;5105725;27;20119;-66
2024/01/09 00:31:05;;;;;;;5.75;2.55;;;;;;;;;;5118159;27;20126;-66
2024/01/09 00:33:32;;;;;;;7.30;2.78;;;;;;;;;;5121742;27;20048;-66
2024/01/09 00:35:59;;;;;;;8.40;3.50;;;;;;;;;;5125115;27;20046;-66
2024/01/09 00:38:25;;;;;;;6.80;2.75;;;;;;;;;;5106158;27;20449;-66
2024/01/09 00:40:51;;;;;;;9.80;2.75;;;;;;;;;;5103027;27;20051;-66
2024/01/09 00:43:17;;;;;;;8.00;3.00;;;;;;;;;;5104611;28;20042;-66
2024/01/09 00:45:43;;;;;;;7.30;2.88;;;;;;;;;;5124865;27;20625;-66
2024/01/09 00:48:09;;;;;;;6.53;2.35;;;;;;;;;;5107680;27;20042;-66
2024/01/09 00:50:36;;;;;;;6.45;2.58;;;;;;;;;;5105371;27;20047;-66
2024/01/09 00:53:02;;;;;;;7.10;2.40;;;;;;;;;;5086491;27;20057;-66
2024/01/09 00:55:28;;;;;;;7.50;2.35;;;;;;;;;;5120357;27;20388;-66
2024/01/09 00:57:54;;;;;;;8.15;2.60;;;;;;;;;;5085897;27;20471;-66
2024/01/09 01:00:20;;;;;;;6.28;2.80;;;;;;;;;;5121923;27;20529;-66
2024/01/09 01:02:47;;;;;;;11.07;3.05;;;;;;;;;;5101945;27;20067;-66
2024/01/09 01:05:15;;;;;;;7.00;3.13;;;;;;;;;;5120661;27;20043;-66
2024/01/09 01:07:41;;;;;;;8.60;2.88;;;;;;;;;;5102768;27;20424;-66
2024/01/09 01:10:11;;;;;;;5.00;2.00;;;;;;;;;;5121574;27;20084;-66
2024/01/09 01:12:38;;;;;;;6.65;2.40;;;;;;;;;;5119857;27;20054;-66
2024/01/09 01:15:04;;;;;;;7.95;2.42;;;;;;;;;;5120517;27;20046;-66
2024/01/09 01:17:31;;;;;;;12.30;4.20;;;;;;;;;;5088460;27;20104;-66
2024/01/09 01:19:57;;;;;;;5.85;2.70;;;;;;;;;;5103785;27;20043;-66
2024/01/09 01:22:23;;;;;;;10.20;4.53;;;;;;;;;;5105343;27;20490;-66
2024/01/09 01:24:49;;;;;;;9.02;3.35;;;;;;;;;;5103972;27;20051;-66
2024/01/09 01:27:15;;;;;;;8.13;2.67;;;;;;;;;;5105851;27;20039;-66
2024/01/09 01:29:42;;;;;;;6.72;2.30;;;;;;;;;;5123959;27;20050;-66
2024/01/09 01:32:10;;;;;;;7.03;2.83;;;;;;;;;;5103239;27;20092;-66
2024/01/09 01:34:37;;;;;;;9.43;3.17;;;;;;;;;;5105401;27;20420;-67
2024/01/09 01:37:03;;;;;;;8.52;2.97;;;;;;;;;;5095547;27;20035;-66
2024/01/09 01:39:29;;;;;;;10.70;4.90;;;;;;;;;;5103962;27;20060;-66
2024/01/09 01:41:56;;;;;;;7.82;3.10;;;;;;;;;;5099308;27;20038;-66
2024/01/09 01:44:22;;;;;;;7.35;2.55;;;;;;;;;;5121897;27;20035;-66
2024/01/09 01:46:49;;;;;;;7.55;2.80;;;;;;;;;;5103281;27;20035;-66
2024/01/09 01:49:17;;;;;;;12.57;2.85;;;;;;;;;;5121676;27;20088;-66
2024/01/09 01:51:44;;;;;;;7.43;2.47;;;;;;;;;;5103237;27;20411;-66
2024/01/09 01:54:11;;;;;;;7.10;2.95;;;;;;;;;;5086236;27;20361;-67
2024/01/09 01:56:38;;;;;;;5.95;2.45;;;;;;;;;;5118995;27;20046;-66
2024/01/09 01:59:04;;;;;;;6.00;2.80;;;;;;;;;;5097967;27;20035;-66
2024/01/09 02:01:30;;;;;;;6.22;2.90;;;;;;;;;;5096986;27;20050;-67
2024/01/09 02:03:56;;;;;;;7.18;2.90;;;;;;;;;;5117747;28;20038;-66
2024/01/09 02:06:23;;;;;;;6.65;2.63;;;;;;;;;;5100172;28;20214;-66
2024/01/09 02:08:49;;;;;;;7.40;2.83;;;;;;;;;;5103114;28;20039;-67
2024/01/09 02:11:15;;;;;;;12.55;3.00;;;;;;;;;;5100209;28;20139;-66
2024/01/09 02:13:41;;;;;;;6.28;2.72;;;;;;;;;;5100956;28;20502;-66
2024/01/09 02:16:07;;;;;;;8.68;2.42;;;;;;;;;;5103006;28;20043;-66
2024/01/09 02:18:34;;;;;;;7.43;2.72;;;;;;;;;;5112829;28;20039;-66
2024/01/09 02:21:00;;;;;;;7.18;2.85;;;;;;;;;;5099851;28;20044;-66
2024/01/09 02:23:26;;;;;;;9.35;3.15;;;;;;;;;;5097892;28;20047;-67
2024/01/09 02:25:52;;;;;;;8.23;2.65;;;;;;;;;;5118403;28;20661;-67
2024/01/09 02:28:23;;;;;;;7.63;2.17;;;;;;;;;;5097466;28;20459;-67
2024/01/09 02:30:52;;;;;;;7.72;2.85;;;;;;;;;;5101301;28;20115;-67
2024/01/09 02:33:18;;;;;;;5.85;2.63;;;;;;;;;;5102189;28;20096;-67
2024/01/09 02:35:45;;;;;;;8.52;2.50;;;;;;;;;;5100122;28;20078;-66
2024/01/09 02:38:11;;;;;;;7.93;2.70;;;;;;;;;;5081969;28;20046;-67
2024/01/09 02:40:38;;;;;;;11.90;3.15;;;;;;;;;;5101599;28;20083;-66
2024/01/09 02:43:05;;;;;;;6.85;2.67;;;;;;;;;;5115930;28;20479;-67
2024/01/09 02:45:31;;;;;;;9.98;2.70;;;;;;;;;;5103860;28;20096;-67
2024/01/09 02:47:57;;;;;;;7.30;2.67;;;;;;;;;;5101614;28;20054;-66
2024/01/09 02:50:23;;;;;;;7.55;2.60;;;;;;;;;;5099921;28;20475;-67
2024/01/09 02:52:49;;;;;;;9.27;2.63;;;;;;;;;;5118228;28;20181;-67
2024/01/09 02:55:16;;;;;;;7.30;2.55;;;;;;;;;;5103945;28;20046;-67
2024/01/09 02:57:42;;;;;;;7.03;2.88;;;;;;;;;;5103435;28;20502;-67
2024/01/09 03:00:08;;;;;;;7.30;3.10;;;;;;;;;;5082078;28;20443;-66
2024/01/09 03:02:35;;;;;;;18.30;3.03;;;;;;;;;;5107151;28;20070;-67
2024/01/09 03:05:02;;;;;;;7.03;2.58;;;;;;;;;;5100707;28;20112;-67
2024/01/09 03:07:29;;;;;;;9.18;3.20;;;;;;;;;;5099921;28;20043;-66
2024/01/09 03:09:55;;;;;;;7.25;3.30;;;;;;;;;;5102144;27;20039;-67
2024/01/09 03:12:21;;;;;;;8.85;3.53;;;;;;;;;;5120824;27;20524;-67
2024/01/09 03:14:47;;;;;;;7.82;3.30;;;;;;;;;;5104742;27;20043;-67
2024/01/09 03:17:13;;;;;;;7.78;3.05;;;;;;;;;;5097645;27;20051;-66
2024/01/09 03:19:42;;;;;;;9.80;2.72;;;;;;;;;;5105665;27;20497;-66
2024/01/09 03:22:09;;;;;;;7.65;3.03;;;;;;;;;;5105727;27;20057;-67
2024/01/09 03:24:35;;;;;;;6.68;2.72;;;;;;;;;;5087329;27;20035;-67
2024/01/09 03:27:01;;;;;;;7.88;3.10;;;;;;;;;;5084769;27;20043;-67
2024/01/09 03:29:27;;;;;;;10.38;2.45;;;;;;;;;;5124722;27;20039;-67
2024/01/09 03:31:54;;;;;;;9.90;2.80;;;;;;;;;;5099568;27;20054;-67
2024/01/09 03:34:20;;;;;;;7.45;2.63;;;;;;;;;;5103805;27;20047;-67
2024/01/09 03:36:47;;;;;;;8.40;3.03;;;;;;;;;;5106074;27;20039;-67
2024/01/09 03:39:16;;;;;;;8.27;2.80;;;;;;;;;;5124077;27;20142;-67
2024/01/09 03:41:43;;;;;;;6.03;3.13;;;;;;;;;;5107784;27;20047;-66
2024/01/09 03:44:10;;;;;;;7.47;3.03;;;;;;;;;;5125283;27;20039;-66
2024/01/09 03:46:36;;;;;;;11.75;2.92;;;;;;;;;;5124492;27;20508;-66
2024/01/09 03:49:03;;;;;;;6.72;2.35;;;;;;;;;;5104944;27;20119;-67
2024/01/09 03:51:29;;;;;;;9.52;2.92;;;;;;;;;;5105578;27;20084;-67
2024/01/09 03:53:55;;;;;;;6.05;2.83;;;;;;;;;;5108162;27;20039;-66
2024/01/09 03:56:21;;;;;;;8.15;2.50;;;;;;;;;;5106510;27;20047;-66
2024/01/09 03:58:48;;;;;;;6.13;2.75;;;;;;;;;;5126648;27;20047;-66
2024/01/09 04:01:14;;;;;;;10.18;2.65;;;;;;;;;;5104651;27;20601;-67
2024/01/09 04:03:41;;;;;;;6.22;2.75;;;;;;;;;;5124865;27;20111;-66
2024/01/09 04:06:07;;;;;;;6.18;2.58;;;;;;;;;;5105154;27;20047;-67
2024/01/09 04:08:33;;;;;;;7.32;2.60;;;;;;;;;;5107861;27;20050;-66
2024/01/09 04:11:02;;;;;;;8.80;3.85;;;;;;;;;;5083295;27;20526;-67
2024/01/09 04:13:29;;;;;;;9.38;3.00;;;;;;;;;;5109216;27;20103;-67
2024/01/09 04:15:55;;;;;;;9.82;2.88;;;;;;;;;;5105977;27;20054;-67
2024/01/09 04:18:21;;;;;;;6.18;2.78;;;;;;;;;;5124041;27;20502;-66
2024/01/09 04:20:47;;;;;;;6.65;2.42;;;;;;;;;;5103761;27;20042;-67
2024/01/09 04:23:13;;;;;;;6.25;2.85;;;;;;;;;;5103309;27;20031;-67
2024/01/09 04:25:39;;;;;;;8.13;2.92;;;;;;;;;;5103990;27;20448;-66
2024/01/09 04:28:06;;;;;;;7.97;2.58;;;;;;;;;;5105954;27;20051;-66
2024/01/09 04:30:32;;;;;;;8.05;3.05;;;;;;;;;;5102087;28;20496;-67
2024/01/09 04:32:58;;;;;;;8.98;3.53;;;;;;;;;;5094926;28;20048;-67
2024/01/09 04:35:24;;;;;;;10.13;2.83;;;;;;;;;;5078438;28;20069;-67
2024/01/09 04:37:50;;;;;;;8.57;3.63;;;;;;;;;;5102145;28;20078;-67
2024/01/09 04:40:17;;;;;;;6.25;2.42;;;;;;;;;;5090399;28;20040;-67
2024/01/09 04:42:43;;;;;;;5.65;2.55;;;;;;;;;;5092988;28;20449;-66
2024/01/09 04:45:09;;;;;;;6.20;2.55;;;;;;;;;;5092836;28;20047;-66
2024/01/09 04:47:35;;;;;;;6.68;3.15;;;;;;;;;;5093924;28;20040;-66
2024/01/09 04:50:02;;;;;;;8.20;3.00;;;;;;;;;;5094421;28;20084;-66
2024/01/09 04:52:28;;;;;;;8.80;3.08;;;;;;;;;;5094969;28;20499;-66
2024/01/09 04:54:54;;;;;;;6.78;2.58;;;;;;;;;;5093875;28;20036;-66
2024/01/09 04:57:20;;;;;;;8.98;3.22;;;;;;;;;;5091828;28;20592;-67
2024/01/09 04:59:49;;;;;;;6.70;2.83;;;;;;;;;;5093111;28;20036;-66
2024/01/09 05:02:15;;;;;;;6.90;3.22;;;;;;;;;;5094090;28;20127;-66
2024/01/09 05:04:41;;;;;;;6.43;2.85;;;;;;;;;;5091650;28;20395;-66
2024/01/09 05:07:07;;;;;;;8.43;2.58;;;;;;;;;;5095571;28;20055;-66
2024/01/09 05:09:33;;;;;;;6.90;2.60;;;;;;;;;;5096768;28;20048;-66
2024/01/09 05:12:00;;;;;;;8.82;3.00;;;;;;;;;;5099323;28;20035;-66
2024/01/09 05:14:26;;;;;;;8.20;3.17;;;;;;;;;;5095769;28;20179;-66
2024/01/09 05:16:52;;;;;;;8.50;3.58;;;;;;;;;;5092709;28;20036;-66
2024/01/09 05:19:18;;;;;;;8.32;2.90;;;;;;;;;;5098615;28;20471;-66
2024/01/09 05:21:44;;;;;;;12.70;3.30;;;;;;;;;;5096311;28;20185;-66
2024/01/09 05:24:10;;;;;;;8.60;3.40;;;;;;;;;;5100252;28;20059;-66
2024/01/09 05:26:37;;;;;;;12.15;3.50;;;;;;;;;;5089546;28;20437;-66
2024/01/09 05:29:03;;;;;;;6.57;3.15;;;;;;;;;;5093436;28;20395;-66
2024/01/09 05:31:29;;;;;;;7.03;3.10;;;;;;;;;;5094585;28;20051;-66
2024/01/09 05:33:56;;;;;;;8.68;2.97;;;;;;;;;;5092893;28;20052;-66
2024/01/09 05:36:22;;;;;;;9.13;3.00;;;;;;;;;;5092499;28;20470;-66
2024/01/09 05:38:51;;;;;;;8.13;3.20;;;;;;;;;;5097962;28;20043;-66
2024/01/09 05:41:21;;;;;;;6.55;2.83;;;;;;;;;;5096083;28;20043;-66
2024/01/09 05:43:48;;;;;;;6.95;2.75;;;;;;;;;;5101751;28;20039;-66
2024/01/09 05:46:14;;;;;;;9.77;3.78;;;;;;;;;;5090425;28;20059;-66
2024/01/09 05:48:40;;;;;;;9.20;3.25;;;;;;;;;;5079062;28;20747;-66
2024/01/09 05:51:07;;;;;;;9.93;3.53;;;;;;;;;;5091843;28;20082;-66
2024/01/09 05:53:33;;;;;;;9.10;3.03;;;;;;;;;;5102794;28;20058;-66
2024/01/09 05:55:59;;;;;;;7.80;3.50;;;;;;;;;;5096393;28;20415;-66
2024/01/09 05:58:25;;;;;;;8.25;3.53;;;;;;;;;;5102509;28;20035;-66
2024/01/09 06:00:52;;;;;;;9.45;3.20;;;;;;;;;;5105463;28;20113;-66
2024/01/09 06:03:18;;;;;;;6.43;2.97;;;;;;;;;;5104384;28;20123;-66
2024/01/09 06:05:44;;;;;;;7.80;3.85;;;;;;;;;;5100883;28;20086;-66
2024/01/09 06:08:10;;;;;;;7.80;3.45;;;;;;;;;;5102472;28;20039;-66
2024/01/09 06:10:36;;;;;;;8.23;3.47;;;;;;;;;;5093096;28;20086;-66
2024/01/09 06:13:03;;;;;;;7.40;3.75;;;;;;;;;;5077042;28;20047;-66
2024/01/09 06:15:29;;;;;;;7.63;3.60;;;;;;;;;;5091856;28;20095;-66
2024/01/09 06:17:55;;;;;;;11.13;3.92;;;;;;;;;;5096580;28;20062;-66
2024/01/09 06:20:22;;;;;;;9.05;3.50;;;;;;;;;;5091668;28;20123;-66
2024/01/09 06:22:48;;;;;;;8.25;3.47;;;;;;;;;;5094686;28;20054;-66
2024/01/09 06:25:14;;;;;;;6.88;3.40;;;;;;;;;;5099705;28;20058;-66
2024/01/09 06:27:41;;;;;;;9.02;3.65;;;;;;;;;;5102741;28;20499;-66
2024/01/09 06:30:07;;;;;;;7.93;3.67;;;;;;;;;;5096591;28;20036;-66
2024/01/09 06:32:33;;;;;;;8.38;4.07;;;;;;;;;;5121431;28;20058;-65
2024/01/09 06:35:00;;;;;;;8.38;3.25;;;;;;;;;;5084022;28;20167;-65
2024/01/09 06:37:26;;;;;;;8.07;4.20;;;;;;;;;;5086198;28;20490;-66
2024/01/09 06:39:52;;;;;;;8.30;3.95;;;;;;;;;;5103459;28;20100;-65
2024/01/09 06:42:19;;;;;;;10.43;4.32;;;;;;;;;;5124604;28;20062;-66
2024/01/09 06:44:46;;;;;;;10.40;5.00;;;;;;;;;;5103477;27;20036;-66
2024/01/09 06:47:13;;;;;;;8.05;4.35;;;;;;;;;;5106107;27;20490;-65
2024/01/09 06:49:39;;;;;;;7.38;3.58;;;;;;;;;;5126017;27;20031;-66
2024/01/09 06:52:05;;;;;;;7.90;3.63;;;;;;;;;;5110063;27;20099;-66
2024/01/09 06:54:31;;;;;;;9.43;4.20;;;;;;;;;;5128756;27;20039;-65
2024/01/09 06:56:58;;;;;;;7.47;3.78;;;;;;;;;;5127704;27;20039;-66
2024/01/09 06:59:24;;;;;;;7.25;3.75;;;;;;;;;;5103502;27;20114;-65
2024/01/09 07:01:51;;;;;;;8.18;3.53;;;;;;;;;;5108300;27;20062;-65
2024/01/09 07:04:17;;;;;;;7.15;3.67;;;;;;;;;;5117606;27;20050;-66
2024/01/09 07:06:43;;;;;;;8.43;4.15;;;;;;;;;;5106074;27;20047;-65
2024/01/09 07:09:10;;;;;;;7.75;3.72;;;;;;;;;;5097245;27;20039;-66
2024/01/09 07:11:36;;;;;;;16.85;8.70;;;;;;;;;;5102245;27;20063;-65
2024/01/09 07:14:02;;;;;;;11.52;6.22;;;;;;;;;;5100454;27;20048;-65
2024/01/09 07:16:29;;;;;;;8.00;4.60;;;;;;;;;;5100889;27;20117;-66
2024/01/09 07:18:55;;;;;;;9.32;4.65;;;;;;;;;;5103498;27;20113;-65
2024/01/09 07:21:21;;;;;;;8.35;3.95;;;;;;;;;;5101295;27;20424;-66
2024/01/09 07:23:47;;;;;;;7.85;3.90;;;;;;;;;;5105693;27;20037;-65
2024/01/09 07:26:14;;;;;;;9.85;4.72;;;;;;;;;;5105307;27;20043;-65
2024/01/09 07:28:41;;;;;;;12.65;5.47;;;;;;;;;;5104029;27;20092;-65
2024/01/09 07:31:09;;;;;;;11.48;4.45;;;;;;;;;;5093395;28;20090;-65
2024/01/09 07:33:35;;;;;;;9.43;4.00;;;;;;;;;;5091499;27;20071;-65
2024/01/09 07:36:02;;;;;;;10.20;4.53;;;;;;;;;;5100839;28;20039;-66
2024/01/09 07:38:28;;;;;;;9.20;4.25;;;;;;;;;;5090669;28;20580;-66
2024/01/09 07:40:55;;;;;;;7.32;3.80;;;;;;;;;;5099531;28;20046;-66
2024/01/09 07:43:21;;;;;;;8.30;3.67;;;;;;;;;;5095041;28;20039;-65
2024/01/09 07:45:47;;;;;;;6.38;3.63;;;;;;;;;;5093848;28;20131;-66
2024/01/09 07:48:13;;;;;;;9.57;3.97;;;;;;;;;;5097982;28;20036;-69
2024/01/09 07:50:39;;;;;;;6.97;3.65;;;;;;;;;;5091648;28;20055;-68
2024/01/09 07:53:06;;;;;;;8.23;4.20;;;;;;;;;;5089064;28;20364;-74
2024/01/09 07:55:32;;;;;;;9.60;4.05;;;;;;;;;;5090349;28;20051;-73
2024/01/09 07:58:00;;;;;;;8.40;4.57;;;;;;;;;;5091884;28;20054;-75
2024/01/09 08:00:26;;;;;;;8.13;4.10;;;;;;;;;;5091179;28;20044;-64
2024/01/09 08:02:52;;;;;;;10.00;3.95;;;;;;;;;;5098005;28;20052;-64
2024/01/09 08:05:19;;;;;;;7.47;3.58;;;;;;;;;;5102814;28;20040;-64
2024/01/09 08:07:45;;;;;;;8.85;4.30;;;;;;;;;;5093786;28;20139;-64
2024/01/09 08:10:12;;;;;;;11.05;4.45;;;;;;;;;;5099400;28;20119;-64
2024/01/09 08:12:38;;;;;;;8.57;3.70;;;;;;;;;;5094224;28;20047;-64
2024/01/09 08:15:05;;;;;;;9.63;3.53;;;;;;;;;;5105147;27;20079;-63
2024/01/09 08:17:31;;;;;;;7.43;4.22;;;;;;;;;;5101665;27;20140;-64
2024/01/09 08:19:57;;;;;;;8.63;3.72;;;;;;;;;;5101728;28;20071;-65
2024/01/09 08:22:23;;;;;;;9.77;4.47;;;;;;;;;;5093141;27;20048;-64
2024/01/09 08:24:49;;;;;;;9.73;3.90;;;;;;;;;;5090996;28;20043;-64
2024/01/09 08:27:16;;;;;;;8.00;3.75;;;;;;;;;;5092728;28;20189;-64
2024/01/09 08:29:44;;;;;;;9.82;4.28;;;;;;;;;;5108766;28;20043;-65
2024/01/09 08:32:15;;;;;;;9.80;4.70;;;;;;;;;;5102754;28;20074;-65
2024/01/09 08:34:41;;;;;;;7.15;3.60;;;;;;;;;;5102857;28;20047;-65
2024/01/09 08:37:08;;;;;;;6.65;3.65;;;;;;;;;;5105630;28;20031;-65
2024/01/09 08:39:34;;;;;;;7.05;2.92;;;;;;;;;;5099692;28;20064;-64
2024/01/09 08:42:00;;;;;;;8.38;3.55;;;;;;;;;;5096840;28;20040;-65
2024/01/09 08:44:27;;;;;;;9.63;3.60;;;;;;;;;;5107016;28;20047;-65
2024/01/09 08:46:53;;;;;;;7.70;3.40;;;;;;;;;;5104713;28;20451;-65
2024/01/09 08:49:20;;;;;;;9.07;3.97;;;;;;;;;;5103230;28;20080;-65
2024/01/09 08:51:46;;;;;;;6.80;3.17;;;;;;;;;;5097111;28;20103;-66
2024/01/09 08:54:12;;;;;;;7.13;3.00;;;;;;;;;;5089424;28;20040;-66
2024/01/09 08:56:39;;;;;;;8.35;3.97;;;;;;;;;;5095334;28;20099;-66
2024/01/09 08:59:07;;;;;;;7.22;3.20;;;;;;;;;;5104707;28;20039;-66
2024/01/09 09:01:35;;;;;;;6.82;3.10;;;;;;;;;;5099473;28;20060;-64
2024/01/09 09:04:02;;;;;;;6.10;2.97;;;;;;;;;;5102103;28;20487;-64
2024/01/09 09:06:29;;;;;;;7.30;3.35;;;;;;;;;;5095477;28;20043;-66
2024/01/09 09:08:55;;;;;;;7.32;3.35;;;;;;;;;;5099249;28;20032;-66
2024/01/09 09:11:21;;;;;;;8.70;3.55;;;;;;;;;;5105386;28;20050;-65
2024/01/09 09:13:47;;;;;;;6.38;2.75;;;;;;;;;;5096993;28;20479;-65
2024/01/09 09:16:14;;;;;;;6.15;2.85;;;;;;;;;;5103641;28;20047;-66
2024/01/09 09:18:40;;;;;;;6.35;3.08;;;;;;;;;;5089865;28;20040;-65
2024/01/09 09:21:06;;;;;;;9.80;3.08;;;;;;;;;;5089007;28;20044;-65
2024/01/09 09:23:33;;;;;;;7.35;3.30;;;;;;;;;;5102362;28;20046;-65
2024/01/09 09:25:59;;;;;;;5.78;2.63;;;;;;;;;;5093144;28;20044;-65
2024/01/09 09:28:25;;;;;;;8.75;3.28;;;;;;;;;;5091345;28;20047;-65
2024/01/09 09:30:53;;;;;;;8.85;3.08;;;;;;;;;;5092965;28;20134;-65
2024/01/09 09:33:20;;;;;;;5.70;2.65;;;;;;;;;;5087903;28;21325;-65
2024/01/09 09:35:46;;;;;;;6.47;3.20;;;;;;;;;;5087485;28;20040;-65
2024/01/09 09:38:13;;;;;;;6.32;2.17;;;;;;;;;;5084903;28;20040;-64
2024/01/09 09:40:41;;;;;;;5.93;3.05;;;;;;;;;;5099839;28;20116;-64
2024/01/09 09:43:11;;;;;;;7.88;3.00;;;;;;;;;;5093375;28;20502;-64
2024/01/09 09:45:38;;;;;;;6.28;2.75;;;;;;;;;;5093637;28;20050;-64
2024/01/09 09:48:04;;;;;;;10.38;2.97;;;;;;;;;;5095072;28;20040;-64
2024/01/09 09:50:32;;;;;;;7.20;2.92;;;;;;;;;;5093158;28;20441;-64
2024/01/09 09:52:59;;;;;;;8.52;4.30;;;;;;;;;;5098756;28;20071;-64
2024/01/09 09:55:25;;;;;;;10.23;3.30;;;;;;;;;;5092764;28;20071;-64
2024/01/09 09:57:51;;;;;;;7.53;3.00;;;;;;;;;;5090046;28;20379;-64
2024/01/09 10:00:18;;;;;;;7.10;2.88;;;;;;;;;;5099170;28;20089;-64
2024/01/09 10:02:48;;;;;;;5.93;2.88;;;;;;;;;;5098407;28;20059;-64
2024/01/09 10:05:16;;;;;;;6.03;2.70;;;;;;;;;;5092677;28;20494;-64
2024/01/09 10:07:45;;;;;;;5.70;2.97;;;;;;;;;;5098435;28;20551;-63
2024/01/09 10:10:12;;;;;;;6.13;2.55;;;;;;;;;;5088069;28;20081;-64
2024/01/09 10:12:39;;;;;;;6.35;3.08;;;;;;;;;;5090912;28;20066;-64
2024/01/09 10:15:08;;;;;;;7.88;2.80;;;;;;;;;;5100479;28;20040;-64
2024/01/09 10:17:35;;;;;;;6.38;2.70;;;;;;;;;;5089242;28;20044;-64
2024/01/09 10:20:02;;;;;;;7.80;3.15;;;;;;;;;;5096611;28;20096;-64
2024/01/09 10:22:31;;;;;;;8.40;3.20;;;;;;;;;;5102946;28;20071;-65
2024/01/09 10:24:57;;;;;;;7.03;2.55;;;;;;;;;;5094647;28;20382;-64
2024/01/09 10:27:24;;;;;;;8.27;3.65;;;;;;;;;;5096881;28;20483;-64
2024/01/09 10:29:50;;;;;;;5.97;2.83;;;;;;;;;;5101641;28;20085;-64
2024/01/09 10:32:19;;;;;;;7.35;3.10;;;;;;;;;;5100844;28;20804;-64
2024/01/09 10:34:45;;;;;;;6.20;2.80;;;;;;;;;;5100753;28;20050;-64
2024/01/09 10:37:13;;;;;;;7.80;3.22;;;;;;;;;;5093780;28;20101;-64
2024/01/09 10:39:40;;;;;;;8.27;3.20;;;;;;;;;;5091154;28;20897;-64
2024/01/09 10:42:06;;;;;;;6.82;2.90;;;;;;;;;;5087413;28;20115;-63
2024/01/09 10:44:32;;;;;;;7.63;3.10;;;;;;;;;;5106572;28;20044;-64
2024/01/09 10:47:00;;;;;;;7.90;3.40;;;;;;;;;;5103994;28;20126;-64
2024/01/09 10:49:27;;;;;;;6.85;2.95;;;;;;;;;;5108168;28;20122;-64
2024/01/09 10:51:55;;;;;;;6.63;3.13;;;;;;;;;;5095179;28;20040;-64
2024/01/09 10:54:21;;;;;;;7.80;3.85;;;;;;;;;;5094347;28;20518;-64
2024/01/09 10:56:50;;;;;;;6.20;3.05;;;;;;;;;;5106012;28;20101;-65
2024/01/09 10:59:17;;;;;;;6.40;2.90;;;;;;;;;;5100007;28;20097;-64
2024/01/09 11:01:43;;;;;;;6.00;2.97;;;;;;;;;;5100998;28;20052;-65
2024/01/09 11:04:09;;;;;;;7.90;3.05;;;;;;;;;;5104279;28;20042;-65
2024/01/09 11:06:36;;;;;;;5.60;2.92;;;;;;;;;;5099825;28;20130;-65
2024/01/09 11:09:04;;;;;;;5.70;2.65;;;;;;;;;;5099880;28;20063;-65
2024/01/09 11:11:34;;;;;;;7.53;3.10;;;;;;;;;;5094819;28;20124;-64
2024/01/09 11:14:06;;;;;;;6.40;2.45;;;;;;;;;;5094320;28;20078;-64
2024/01/09 11:16:34;;;;;;;9.25;2.63;;;;;;;;;;5096160;28;20051;-64
2024/01/09 11:19:01;;;;;;;8.35;3.10;;;;;;;;;;5105232;28;20062;-64
2024/01/09 11:21:27;;;;;;;6.63;2.70;;;;;;;;;;5096598;28;20043;-64
2024/01/09 11:23:56;;;;;;;5.90;2.67;;;;;;;;;;5096493;28;20035;-64
2024/01/09 11:26:23;;;;;;;5.57;2.45;;;;;;;;;;5097675;28;20548;-64
2024/01/09 11:28:49;;;;;;;5.65;2.50;;;;;;;;;;5105572;28;20364;-64
2024/01/09 11:31:20;;;;;;;5.40;2.00;;;;;;;;;;5099921;27;20043;-64
2024/01/09 11:33:47;;;;;;;6.10;3.45;;;;;;;;;;5106339;27;20047;-64
2024/01/09 11:36:18;;;;;;;5.53;2.65;;;;;;;;;;5121009;27;20051;-64
2024/01/09 11:38:44;;;;;;;6.70;2.97;;;;;;;;;;5097426;27;20479;-63
2024/01/09 11:41:10;;;;;;;5.80;3.17;;;;;;;;;;5105224;27;20046;-64
2024/01/09 11:43:55;;;;;;;5.15;2.33;;;;;;;;;;5120976;27;20119;-64
2024/01/09 11:46:23;;;;;;;5.40;2.40;;;;;;;;;;5097957;27;20047;-63
2024/01/09 11:48:49;;;;;;;5.63;2.53;;;;;;;;;;5119305;27;20416;-63
2024/01/09 11:51:15;;;;;;;5.75;2.95;;;;;;;;;;5118649;27;20047;-63
2024/01/09 11:53:41;;;;;;;5.50;2.80;;;;;;;;;;5117152;27;20426;-64
2024/01/09 11:56:13;;;;;;;5.57;3.00;;;;;;;;;;5121129;27;20043;-63
2024/01/09 11:58:40;;;;;;;6.40;2.88;;;;;;;;;;5099255;27;20140;-64
2024/01/09 12:01:06;;;;;;;6.30;2.90;;;;;;;;;;5104801;27;20390;-64
2024/01/09 12:03:34;;;;;;;6.03;2.53;;;;;;;;;;5104362;27;21085;-64
2024/01/09 12:06:00;;;;;;;4.88;2.25;;;;;;;;;;5123038;27;20071;-64
2024/01/09 12:08:27;;;;;;;6.28;2.50;;;;;;;;;;5103762;27;20068;-64
2024/01/09 12:10:53;;;;;;;8.20;3.05;;;;;;;;;;5121774;27;20082;-76
2024/01/09 12:13:20;;;;;;;5.55;2.70;;;;;;;;;;5099814;27;20401;-64
2024/01/09 12:15:46;;;;;;;5.85;2.45;;;;;;;;;;5122620;27;20158;-63
2024/01/09 12:18:12;;;;;;;5.07;2.33;;;;;;;;;;5123680;27;20031;-64
2024/01/09 12:20:39;;;;;;;4.80;2.08;;;;;;;;;;5124450;27;20055;-64
2024/01/09 12:23:06;;;;;;;4.97;2.40;;;;;;;;;;5121721;27;20058;-64
2024/01/09 12:25:32;;;;;;;6.15;2.60;;;;;;;;;;5116437;27;20487;-63
2024/01/09 12:27:59;;;;;;;4.97;2.45;;;;;;;;;;5097394;27;20550;-64
2024/01/09 12:30:26;;;;;;;5.75;2.60;;;;;;;;;;5119418;27;20043;-64
2024/01/09 12:32:53;;;;;;;6.97;2.63;;;;;;;;;;5121574;27;20087;-67
2024/01/09 12:35:20;;;;;;;6.32;2.63;;;;;;;;;;5100849;27;20543;-67
2024/01/09 12:37:46;;;;;;;5.97;2.60;;;;;;;;;;5098685;27;20461;-68
2024/01/09 12:40:18;;;;;;;7.10;2.85;;;;;;;;;;5099323;27;20435;-63
2024/01/09 12:42:45;;;;;;;7.53;2.20;;;;;;;;;;5096373;27;20124;-63
2024/01/09 12:45:11;;;;;;;7.78;2.75;;;;;;;;;;5121285;27;20049;-63
2024/01/09 12:47:38;;;;;;;5.45;2.25;;;;;;;;;;5121733;27;20074;-71
2024/01/09 12:50:04;;;;;;;5.50;2.10;;;;;;;;;;5100071;27;20067;-63
2024/01/09 12:52:32;;;;;;;4.57;2.13;;;;;;;;;;5114520;27;20122;-63
2024/01/09 12:55:00;;;;;;;4.97;2.55;;;;;;;;;;5110959;27;20042;-63
2024/01/09 12:57:26;;;;;;;4.72;2.40;;;;;;;;;;5097098;27;20059;-63
2024/01/09 12:59:52;;;;;;;6.45;2.92;;;;;;;;;;5094757;27;20043;-65
2024/01/09 13:02:19;;;;;;;4.90;2.30;;;;;;;;;;5097067;27;20056;-65
2024/01/09 13:04:48;;;;;;;6.10;2.88;;;;;;;;;;5100613;27;20133;-66
2024/01/09 13:07:16;;;;;;;5.15;2.65;;;;;;;;;;5101150;27;20050;-65
2024/01/09 13:09:43;;;;;;;4.70;2.00;;;;;;;;;;5111339;27;21293;-65
2024/01/09 13:12:10;;;;;;;5.50;2.75;;;;;;;;;;5118132;27;20442;-65
2024/01/09 13:14:37;;;;;;;6.00;2.80;;;;;;;;;;5122427;27;20043;-65
2024/01/09 13:17:03;;;;;;;5.82;2.00;;;;;;;;;;5103952;27;20506;-65
2024/01/09 13:19:30;;;;;;;5.15;2.13;;;;;;;;;;5103192;28;20039;-67
2024/01/09 13:21:56;;;;;;;4.55;2.30;;;;;;;;;;5104844;27;20576;-65
2024/01/09 13:24:23;;;;;;;4.90;2.50;;;;;;;;;;5105888;27;20064;-65
2024/01/09 13:26:49;;;;;;;4.32;2.10;;;;;;;;;;5119688;27;20448;-65
2024/01/09 13:29:17;;;;;;;5.53;2.67;;;;;;;;;;5098498;27;20043;-65
2024/01/09 13:31:44;;;;;;;4.75;2.40;;;;;;;;;;5120551;27;20058;-65
2024/01/09 13:34:10;;;;;;;4.72;2.33;;;;;;;;;;5102631;27;20383;-65
2024/01/09 13:36:36;;;;;;;5.15;2.38;;;;;;;;;;5104497;27;20035;-65
2024/01/09 13:39:03;;;;;;;6.28;2.08;;;;;;;;;;5101134;27;20869;-66
2024/01/09 13:41:30;;;;;;;4.13;2.00;;;;;;;;;;5104249;27;20041;-66
2024/01/09 13:43:56;;;;;;;4.63;2.13;;;;;;;;;;5121345;27;20111;-66
2024/01/09 13:46:22;;;;;;;5.15;1.92;;;;;;;;;;5106962;27;20050;-66
2024/01/09 13:48:48;;;;;;;4.22;1.80;;;;;;;;;;5124198;27;20463;-66
2024/01/09 13:51:14;;;;;;;4.78;1.88;;;;;;;;;;5120083;27;20039;-66
2024/01/09 13:53:41;;;;;;;5.22;2.03;;;;;;;;;;5097852;28;20047;-66
2024/01/09 13:56:07;;;;;;;5.40;1.98;;;;;;;;;;5100506;28;20383;-66
2024/01/09 13:58:34;;;;;;;7.68;2.08;;;;;;;;;;5097040;27;20043;-66
2024/01/09 14:01:01;;;;;;;3.72;1.90;;;;;;;;;;5112796;27;20035;-66
2024/01/09 14:03:28;;;;;;;4.30;1.92;;;;;;;;;;5097675;28;20166;-66
2024/01/09 14:05:55;;;;;;;4.13;1.95;;;;;;;;;;5101539;27;20077;-66
2024/01/09 14:08:21;;;;;;;6.10;2.55;;;;;;;;;;5117527;27;20096;-66
2024/01/09 14:10:47;;;;;;;3.63;1.73;;;;;;;;;;5101900;28;20630;-66
2024/01/09 14:13:14;;;;;;;5.00;2.42;;;;;;;;;;5119413;28;20073;-66
2024/01/09 14:15:40;;;;;;;4.28;1.83;;;;;;;;;;5101182;28;20039;-66
2024/01/09 14:18:07;;;;;;;4.90;2.33;;;;;;;;;;5101283;28;20043;-66
2024/01/09 14:20:34;;;;;;;6.20;1.83;;;;;;;;;;5124085;28;20407;-67
2024/01/09 14:23:00;;;;;;;3.63;1.33;;;;;;;;;;5121291;28;20040;-67
2024/01/09 14:25:26;;;;;;;5.13;2.20;;;;;;;;;;5121321;28;20074;-66
2024/01/09 14:27:52;;;;;;;5.43;1.90;;;;;;;;;;5124077;28;20036;-66
2024/01/09 14:30:19;;;;;;;5.45;2.15;;;;;;;;;;5123176;28;20504;-66
2024/01/09 14:32:46;;;;;;;5.03;2.03;;;;;;;;;;5115427;28;20500;-66
2024/01/09 14:35:13;;;;;;;5.05;2.17;;;;;;;;;;5121896;28;20590;-66
2024/01/09 14:37:39;;;;;;;5.93;2.85;;;;;;;;;;5121414;28;20058;-66
2024/01/09 14:40:10;;;;;;;5.18;2.20;;;;;;;;;;5103238;28;20039;-66